sensor_id;sensor_type;location;lat;lon;timestamp;P1;durP1;ratioP1;P2;durP2;ratioP2
13083;SDS011;6608;48.790;9.198;2023-10-19T00:00:20;148.33;;;69.00;;
13083;SDS011;6608;48.790;9.198;2023-10-19T00:02:46;153.70;;;69.83;;
13083;SDS011;6608;48.790;9.198;2023-10-19T00:05:13;148.10;;;68.87;;
13083;SDS011;6608;48.790;9.198;2023-10-19T00:07:40;149.10;;;69.33;;
13083;SDS011;6608;48.790;9.198;2023-10-19T00:10:07;145.47;;;68.17;;
13083;SDS011;6608;48.790;9.198;2023-10-19T00:12:32;146.23;;;68.60;;
13083;SDS011;6608;48.790;9.198;2023-10-19T00:14:59;147.17;;;69.00;;
13083;SDS011;6608;48.790;9.198;2023-10-19T00:17:26;150.20;;;69.33;;
13083;SDS011;6608;48.790;9.198;2023-10-19T00:19:54;150.00;;;69.63;;
13083;SDS011;6608;48.790;9.198;2023-10-19T00:22:24;149.33;;;70.17;;
13083;SDS011;6608;48.790;9.198;2023-10-19T00:24:51;149.17;;;69.30;;
13083;SDS011;6608;48.790;9.198;2023-10-19T00:27:16;148.03;;;70.23;;
13083;SDS011;6608;48.790;9.198;2023-10-19T00:29:44;155.87;;;71.70;;
13083;SDS011;6608;48.790;9.198;2023-10-19T00:32:14;158.27;;;73.03;;
13083;SDS011;6608;48.790;9.198;2023-10-19T00:34:44;150.03;;;69.47;;
13083;SDS011;6608;48.790;9.198;2023-10-19T00:37:17;149.83;;;70.10;;
13083;SDS011;6608;48.790;9.198;2023-10-19T00:39:46;156.00;;;71.33;;
13083;SDS011;6608;48.790;9.198;2023-10-19T00:42:19;148.77;;;70.90;;
13083;SDS011;6608;48.790;9.198;2023-10-19T00:44:50;157.03;;;72.40;;
13083;SDS011;6608;48.790;9.198;2023-10-19T00:47:19;148.93;;;69.30;;
13083;SDS011;6608;48.790;9.198;2023-10-19T00:49:51;153.70;;;70.73;;
13083;SDS011;6608;48.790;9.198;2023-10-19T00:52:19;147.90;;;69.23;;
13083;SDS011;6608;48.790;9.198;2023-10-19T00:54:48;153.97;;;71.63;;
13083;SDS011;6608;48.790;9.198;2023-10-19T00:57:20;149.73;;;69.40;;
13083;SDS011;6608;48.790;9.198;2023-10-19T00:59:57;155.20;;;72.23;;
13083;SDS011;6608;48.790;9.198;2023-10-19T01:02:36;150.30;;;70.13;;
13083;SDS011;6608;48.790;9.198;2023-10-19T01:05:10;152.77;;;70.63;;
13083;SDS011;6608;48.790;9.198;2023-10-19T01:07:38;147.20;;;67.30;;
13083;SDS011;6608;48.790;9.198;2023-10-19T01:10:06;147.53;;;67.90;;
13083;SDS011;6608;48.790;9.198;2023-10-19T01:12:34;147.83;;;69.10;;
13083;SDS011;6608;48.790;9.198;2023-10-19T01:15:05;149.20;;;68.57;;
13083;SDS011;6608;48.790;9.198;2023-10-19T01:17:32;150.63;;;69.03;;
13083;SDS011;6608;48.790;9.198;2023-10-19T01:20:03;154.87;;;70.87;;
13083;SDS011;6608;48.790;9.198;2023-10-19T01:22:46;147.07;;;68.43;;
13083;SDS011;6608;48.790;9.198;2023-10-19T01:25:13;147.70;;;68.93;;
13083;SDS011;6608;48.790;9.198;2023-10-19T01:27:49;150.57;;;68.90;;
13083;SDS011;6608;48.790;9.198;2023-10-19T01:30:19;150.33;;;68.90;;
13083;SDS011;6608;48.790;9.198;2023-10-19T01:32:46;149.77;;;68.60;;
13083;SDS011;6608;48.790;9.198;2023-10-19T01:35:12;147.17;;;68.03;;
13083;SDS011;6608;48.790;9.198;2023-10-19T01:37:39;148.80;;;67.90;;
13083;SDS011;6608;48.790;9.198;2023-10-19T01:40:08;153.70;;;70.37;;
13083;SDS011;6608;48.790;9.198;2023-10-19T01:42:37;144.23;;;67.97;;
13083;SDS011;6608;48.790;9.198;2023-10-19T01:45:03;151.73;;;70.43;;
13083;SDS011;6608;48.790;9.198;2023-10-19T01:47:30;144.67;;;67.63;;
13083;SDS011;6608;48.790;9.198;2023-10-19T01:49:57;151.77;;;69.63;;
13083;SDS011;6608;48.790;9.198;2023-10-19T01:52:23;147.03;;;67.77;;
13083;SDS011;6608;48.790;9.198;2023-10-19T01:54:49;147.77;;;68.53;;
13083;SDS011;6608;48.790;9.198;2023-10-19T01:57:25;145.50;;;68.53;;
13083;SDS011;6608;48.790;9.198;2023-10-19T01:59:51;148.73;;;69.60;;
13083;SDS011;6608;48.790;9.198;2023-10-19T02:02:17;146.97;;;68.63;;
13083;SDS011;6608;48.790;9.198;2023-10-19T02:04:43;147.93;;;68.60;;
13083;SDS011;6608;48.790;9.198;2023-10-19T02:07:10;149.93;;;68.07;;
13083;SDS011;6608;48.790;9.198;2023-10-19T02:09:42;147.53;;;69.53;;
13083;SDS011;6608;48.790;9.198;2023-10-19T02:12:09;150.40;;;68.70;;
13083;SDS011;6608;48.790;9.198;2023-10-19T02:14:37;150.90;;;69.87;;
13083;SDS011;6608;48.790;9.198;2023-10-19T02:17:04;147.53;;;68.43;;
13083;SDS011;6608;48.790;9.198;2023-10-19T02:19:30;148.27;;;69.13;;
13083;SDS011;6608;48.790;9.198;2023-10-19T02:21:58;149.57;;;68.67;;
13083;SDS011;6608;48.790;9.198;2023-10-19T02:24:23;147.97;;;68.47;;
13083;SDS011;6608;48.790;9.198;2023-10-19T02:26:51;147.67;;;68.33;;
13083;SDS011;6608;48.790;9.198;2023-10-19T02:29:16;149.13;;;69.17;;
13083;SDS011;6608;48.790;9.198;2023-10-19T02:31:45;150.10;;;69.87;;
13083;SDS011;6608;48.790;9.198;2023-10-19T02:34:11;151.50;;;69.07;;
13083;SDS011;6608;48.790;9.198;2023-10-19T02:36:40;151.10;;;69.13;;
13083;SDS011;6608;48.790;9.198;2023-10-19T02:39:06;147.77;;;68.53;;
13083;SDS011;6608;48.790;9.198;2023-10-19T02:41:33;147.13;;;68.17;;
13083;SDS011;6608;48.790;9.198;2023-10-19T02:44:00;146.20;;;67.23;;
13083;SDS011;6608;48.790;9.198;2023-10-19T02:46:34;146.27;;;68.20;;
13083;SDS011;6608;48.790;9.198;2023-10-19T02:49:01;148.53;;;68.40;;
13083;SDS011;6608;48.790;9.198;2023-10-19T02:51:29;155.50;;;72.30;;
13083;SDS011;6608;48.790;9.198;2023-10-19T02:53:55;149.27;;;68.50;;
13083;SDS011;6608;48.790;9.198;2023-10-19T02:56:24;149.37;;;69.20;;
13083;SDS011;6608;48.790;9.198;2023-10-19T02:58:51;146.50;;;68.17;;
13083;SDS011;6608;48.790;9.198;2023-10-19T03:01:18;149.90;;;69.37;;
13083;SDS011;6608;48.790;9.198;2023-10-19T03:03:47;152.03;;;69.37;;
13083;SDS011;6608;48.790;9.198;2023-10-19T03:06:16;149.53;;;70.13;;
13083;SDS011;6608;48.790;9.198;2023-10-19T03:08:44;151.97;;;70.37;;
13083;SDS011;6608;48.790;9.198;2023-10-19T03:11:11;147.37;;;68.70;;
13083;SDS011;6608;48.790;9.198;2023-10-19T03:13:38;151.33;;;69.50;;
13083;SDS011;6608;48.790;9.198;2023-10-19T03:16:06;149.80;;;69.23;;
13083;SDS011;6608;48.790;9.198;2023-10-19T03:18:34;147.30;;;68.23;;
13083;SDS011;6608;48.790;9.198;2023-10-19T03:21:00;147.53;;;69.07;;
13083;SDS011;6608;48.790;9.198;2023-10-19T03:23:27;147.93;;;69.07;;
13083;SDS011;6608;48.790;9.198;2023-10-19T03:25:55;150.00;;;68.30;;
13083;SDS011;6608;48.790;9.198;2023-10-19T03:28:35;145.97;;;68.27;;
13083;SDS011;6608;48.790;9.198;2023-10-19T03:31:02;148.77;;;70.10;;
13083;SDS011;6608;48.790;9.198;2023-10-19T03:33:29;148.10;;;68.40;;
13083;SDS011;6608;48.790;9.198;2023-10-19T03:35:56;147.03;;;68.80;;
13083;SDS011;6608;48.790;9.198;2023-10-19T03:38:23;147.97;;;69.30;;
13083;SDS011;6608;48.790;9.198;2023-10-19T03:40:51;149.90;;;69.10;;
13083;SDS011;6608;48.790;9.198;2023-10-19T03:43:24;151.77;;;69.53;;
13083;SDS011;6608;48.790;9.198;2023-10-19T03:45:52;149.07;;;67.93;;
13083;SDS011;6608;48.790;9.198;2023-10-19T03:48:20;152.13;;;69.20;;
13083;SDS011;6608;48.790;9.198;2023-10-19T03:50:51;147.77;;;68.83;;
13083;SDS011;6608;48.790;9.198;2023-10-19T03:53:20;148.27;;;68.40;;
13083;SDS011;6608;48.790;9.198;2023-10-19T03:55:47;146.43;;;68.43;;
13083;SDS011;6608;48.790;9.198;2023-10-19T03:58:16;147.73;;;68.97;;
13083;SDS011;6608;48.790;9.198;2023-10-19T04:00:45;148.80;;;69.30;;
13083;SDS011;6608;48.790;9.198;2023-10-19T04:03:13;149.30;;;68.30;;
13083;SDS011;6608;48.790;9.198;2023-10-19T04:05:40;147.53;;;67.90;;
13083;SDS011;6608;48.790;9.198;2023-10-19T04:08:10;145.20;;;67.50;;
13083;SDS011;6608;48.790;9.198;2023-10-19T04:10:40;149.70;;;68.67;;
13083;SDS011;6608;48.790;9.198;2023-10-19T04:13:09;149.03;;;68.87;;
13083;SDS011;6608;48.790;9.198;2023-10-19T04:15:37;149.27;;;70.90;;
13083;SDS011;6608;48.790;9.198;2023-10-19T04:18:04;143.60;;;67.57;;
13083;SDS011;6608;48.790;9.198;2023-10-19T04:20:35;150.73;;;68.23;;
13083;SDS011;6608;48.790;9.198;2023-10-19T04:23:07;143.70;;;67.33;;
13083;SDS011;6608;48.790;9.198;2023-10-19T04:25:36;149.77;;;69.07;;
13083;SDS011;6608;48.790;9.198;2023-10-19T04:28:03;149.23;;;68.03;;
13083;SDS011;6608;48.790;9.198;2023-10-19T04:30:30;148.13;;;68.77;;
13083;SDS011;6608;48.790;9.198;2023-10-19T04:32:59;147.40;;;68.57;;
13083;SDS011;6608;48.790;9.198;2023-10-19T04:35:26;153.00;;;70.13;;
13083;SDS011;6608;48.790;9.198;2023-10-19T04:37:55;151.07;;;68.70;;
13083;SDS011;6608;48.790;9.198;2023-10-19T04:40:22;155.53;;;70.53;;
13083;SDS011;6608;48.790;9.198;2023-10-19T04:42:51;158.77;;;71.53;;
13083;SDS011;6608;48.790;9.198;2023-10-19T04:45:17;158.13;;;71.17;;
13083;SDS011;6608;48.790;9.198;2023-10-19T04:47:44;147.00;;;68.07;;
13083;SDS011;6608;48.790;9.198;2023-10-19T04:50:13;147.17;;;67.97;;
13083;SDS011;6608;48.790;9.198;2023-10-19T04:52:39;150.37;;;68.87;;
13083;SDS011;6608;48.790;9.198;2023-10-19T04:55:06;153.43;;;69.30;;
13083;SDS011;6608;48.790;9.198;2023-10-19T04:57:32;149.07;;;68.57;;
13083;SDS011;6608;48.790;9.198;2023-10-19T04:59:59;150.10;;;67.97;;
13083;SDS011;6608;48.790;9.198;2023-10-19T05:02:25;151.10;;;69.07;;
13083;SDS011;6608;48.790;9.198;2023-10-19T05:04:51;151.60;;;68.40;;
13083;SDS011;6608;48.790;9.198;2023-10-19T05:07:20;157.20;;;69.77;;
13083;SDS011;6608;48.790;9.198;2023-10-19T05:09:46;146.63;;;68.43;;
13083;SDS011;6608;48.790;9.198;2023-10-19T05:12:13;150.50;;;68.13;;
13083;SDS011;6608;48.790;9.198;2023-10-19T05:14:40;148.33;;;68.23;;
13083;SDS011;6608;48.790;9.198;2023-10-19T05:17:07;152.83;;;69.07;;
13083;SDS011;6608;48.790;9.198;2023-10-19T05:19:35;149.57;;;68.40;;
13083;SDS011;6608;48.790;9.198;2023-10-19T05:22:02;149.27;;;68.40;;
13083;SDS011;6608;48.790;9.198;2023-10-19T05:24:30;146.13;;;66.67;;
13083;SDS011;6608;48.790;9.198;2023-10-19T05:26:57;152.80;;;68.37;;
13083;SDS011;6608;48.790;9.198;2023-10-19T05:29:23;149.20;;;68.07;;
13083;SDS011;6608;48.790;9.198;2023-10-19T05:31:50;148.27;;;68.30;;
13083;SDS011;6608;48.790;9.198;2023-10-19T05:34:18;150.93;;;70.00;;
13083;SDS011;6608;48.790;9.198;2023-10-19T05:36:45;148.57;;;67.40;;
13083;SDS011;6608;48.790;9.198;2023-10-19T05:39:14;152.63;;;70.23;;
13083;SDS011;6608;48.790;9.198;2023-10-19T05:41:42;145.90;;;67.10;;
13083;SDS011;6608;48.790;9.198;2023-10-19T05:44:08;147.03;;;66.97;;
13083;SDS011;6608;48.790;9.198;2023-10-19T05:46:35;151.40;;;67.60;;
13083;SDS011;6608;48.790;9.198;2023-10-19T05:49:01;145.67;;;67.43;;
13083;SDS011;6608;48.790;9.198;2023-10-19T05:51:29;147.53;;;67.93;;
13083;SDS011;6608;48.790;9.198;2023-10-19T05:53:55;145.13;;;67.37;;
13083;SDS011;6608;48.790;9.198;2023-10-19T05:56:26;149.20;;;68.23;;
13083;SDS011;6608;48.790;9.198;2023-10-19T05:58:54;148.40;;;67.77;;
13083;SDS011;6608;48.790;9.198;2023-10-19T06:01:21;149.47;;;68.77;;
13083;SDS011;6608;48.790;9.198;2023-10-19T06:03:48;145.20;;;67.53;;
13083;SDS011;6608;48.790;9.198;2023-10-19T06:06:15;163.20;;;73.00;;
13083;SDS011;6608;48.790;9.198;2023-10-19T06:08:42;147.37;;;68.07;;
13083;SDS011;6608;48.790;9.198;2023-10-19T06:11:08;151.90;;;68.80;;
13083;SDS011;6608;48.790;9.198;2023-10-19T06:13:34;146.23;;;67.97;;
13083;SDS011;6608;48.790;9.198;2023-10-19T06:16:02;154.43;;;69.73;;
13083;SDS011;6608;48.790;9.198;2023-10-19T06:18:29;153.27;;;69.83;;
13083;SDS011;6608;48.790;9.198;2023-10-19T06:20:56;156.20;;;71.03;;
13083;SDS011;6608;48.790;9.198;2023-10-19T06:23:23;152.03;;;69.20;;
13083;SDS011;6608;48.790;9.198;2023-10-19T06:25:49;156.83;;;72.00;;
13083;SDS011;6608;48.790;9.198;2023-10-19T06:28:16;167.23;;;74.23;;
13083;SDS011;6608;48.790;9.198;2023-10-19T06:30:43;150.53;;;69.80;;
13083;SDS011;6608;48.790;9.198;2023-10-19T06:33:11;153.37;;;69.80;;
13083;SDS011;6608;48.790;9.198;2023-10-19T06:35:38;148.57;;;68.70;;
13083;SDS011;6608;48.790;9.198;2023-10-19T06:38:05;147.47;;;67.80;;
13083;SDS011;6608;48.790;9.198;2023-10-19T06:40:34;145.87;;;67.87;;
13083;SDS011;6608;48.790;9.198;2023-10-19T06:43:02;149.57;;;67.77;;
13083;SDS011;6608;48.790;9.198;2023-10-19T06:45:30;153.13;;;70.03;;
13083;SDS011;6608;48.790;9.198;2023-10-19T06:47:56;151.63;;;68.73;;
13083;SDS011;6608;48.790;9.198;2023-10-19T06:50:24;144.90;;;66.97;;
13083;SDS011;6608;48.790;9.198;2023-10-19T06:52:51;147.03;;;67.80;;
13083;SDS011;6608;48.790;9.198;2023-10-19T06:55:19;157.87;;;71.53;;
13083;SDS011;6608;48.790;9.198;2023-10-19T06:57:46;146.53;;;67.57;;
13083;SDS011;6608;48.790;9.198;2023-10-19T07:00:13;151.70;;;67.73;;
13083;SDS011;6608;48.790;9.198;2023-10-19T07:02:44;157.33;;;71.97;;
13083;SDS011;6608;48.790;9.198;2023-10-19T07:05:11;153.07;;;71.60;;
13083;SDS011;6608;48.790;9.198;2023-10-19T07:07:40;158.17;;;70.80;;
13083;SDS011;6608;48.790;9.198;2023-10-19T07:10:07;155.33;;;69.47;;
13083;SDS011;6608;48.790;9.198;2023-10-19T07:12:34;147.00;;;69.30;;
13083;SDS011;6608;48.790;9.198;2023-10-19T07:15:01;148.30;;;69.07;;
13083;SDS011;6608;48.790;9.198;2023-10-19T07:17:28;159.73;;;70.87;;
13083;SDS011;6608;48.790;9.198;2023-10-19T07:19:55;166.97;;;73.47;;
13083;SDS011;6608;48.790;9.198;2023-10-19T07:22:23;152.13;;;70.27;;
13083;SDS011;6608;48.790;9.198;2023-10-19T07:24:54;151.27;;;69.77;;
13083;SDS011;6608;48.790;9.198;2023-10-19T07:27:21;153.03;;;69.50;;
13083;SDS011;6608;48.790;9.198;2023-10-19T07:29:48;156.67;;;71.27;;
13083;SDS011;6608;48.790;9.198;2023-10-19T07:32:14;155.43;;;70.50;;
13083;SDS011;6608;48.790;9.198;2023-10-19T07:34:42;153.73;;;69.37;;
13083;SDS011;6608;48.790;9.198;2023-10-19T07:37:09;158.33;;;71.77;;
13083;SDS011;6608;48.790;9.198;2023-10-19T07:39:40;152.33;;;69.93;;
13083;SDS011;6608;48.790;9.198;2023-10-19T07:42:09;160.17;;;70.17;;
13083;SDS011;6608;48.790;9.198;2023-10-19T07:44:36;153.10;;;68.73;;
13083;SDS011;6608;48.790;9.198;2023-10-19T07:47:03;149.10;;;68.37;;
13083;SDS011;6608;48.790;9.198;2023-10-19T07:49:31;151.77;;;67.67;;
13083;SDS011;6608;48.790;9.198;2023-10-19T07:51:58;157.07;;;69.83;;
13083;SDS011;6608;48.790;9.198;2023-10-19T07:54:24;158.47;;;70.20;;
13083;SDS011;6608;48.790;9.198;2023-10-19T07:56:52;163.27;;;70.57;;
13083;SDS011;6608;48.790;9.198;2023-10-19T07:59:21;157.87;;;69.37;;
13083;SDS011;6608;48.790;9.198;2023-10-19T08:01:47;157.80;;;70.10;;
13083;SDS011;6608;48.790;9.198;2023-10-19T08:04:14;157.83;;;69.87;;
13083;SDS011;6608;48.790;9.198;2023-10-19T08:06:40;168.07;;;73.60;;
13083;SDS011;6608;48.790;9.198;2023-10-19T08:09:07;156.20;;;69.97;;
13083;SDS011;6608;48.790;9.198;2023-10-19T08:11:36;164.33;;;70.83;;
13083;SDS011;6608;48.790;9.198;2023-10-19T08:14:03;165.70;;;73.43;;
13083;SDS011;6608;48.790;9.198;2023-10-19T08:16:31;157.47;;;71.00;;
13083;SDS011;6608;48.790;9.198;2023-10-19T08:18:58;156.30;;;68.97;;
13083;SDS011;6608;48.790;9.198;2023-10-19T08:21:24;162.17;;;70.97;;
13083;SDS011;6608;48.790;9.198;2023-10-19T08:23:53;159.50;;;70.40;;
13083;SDS011;6608;48.790;9.198;2023-10-19T08:26:20;193.33;;;87.97;;
13083;SDS011;6608;48.790;9.198;2023-10-19T08:28:47;168.87;;;77.13;;
13083;SDS011;6608;48.790;9.198;2023-10-19T08:31:14;169.73;;;72.63;;
13083;SDS011;6608;48.790;9.198;2023-10-19T08:33:43;180.27;;;78.47;;
13083;SDS011;6608;48.790;9.198;2023-10-19T08:36:17;179.10;;;80.73;;
13083;SDS011;6608;48.790;9.198;2023-10-19T08:38:44;166.30;;;75.10;;
13083;SDS011;6608;48.790;9.198;2023-10-19T08:41:11;172.40;;;73.83;;
13083;SDS011;6608;48.790;9.198;2023-10-19T08:43:37;166.80;;;72.60;;
13083;SDS011;6608;48.790;9.198;2023-10-19T08:46:05;164.03;;;71.63;;
13083;SDS011;6608;48.790;9.198;2023-10-19T08:48:33;170.13;;;73.97;;
13083;SDS011;6608;48.790;9.198;2023-10-19T08:51:01;179.17;;;80.20;;
13083;SDS011;6608;48.790;9.198;2023-10-19T08:53:28;165.53;;;71.53;;
13083;SDS011;6608;48.790;9.198;2023-10-19T08:55:55;166.93;;;70.93;;
13083;SDS011;6608;48.790;9.198;2023-10-19T08:58:22;171.20;;;75.20;;
13083;SDS011;6608;48.790;9.198;2023-10-19T09:00:51;162.33;;;72.07;;
13083;SDS011;6608;48.790;9.198;2023-10-19T09:03:21;169.27;;;76.67;;
13083;SDS011;6608;48.790;9.198;2023-10-19T09:05:47;164.00;;;74.47;;
13083;SDS011;6608;48.790;9.198;2023-10-19T09:08:15;164.70;;;73.00;;
13083;SDS011;6608;48.790;9.198;2023-10-19T09:10:45;165.30;;;72.40;;
13083;SDS011;6608;48.790;9.198;2023-10-19T09:13:11;166.37;;;73.83;;
13083;SDS011;6608;48.790;9.198;2023-10-19T09:15:41;168.00;;;73.87;;
13083;SDS011;6608;48.790;9.198;2023-10-19T09:18:13;194.57;;;90.27;;
13083;SDS011;6608;48.790;9.198;2023-10-19T09:20:43;215.57;;;104.50;;
13083;SDS011;6608;48.790;9.198;2023-10-19T09:23:19;170.97;;;75.60;;
13083;SDS011;6608;48.790;9.198;2023-10-19T09:25:46;168.30;;;74.07;;
13083;SDS011;6608;48.790;9.198;2023-10-19T09:28:13;172.03;;;76.17;;
13083;SDS011;6608;48.790;9.198;2023-10-19T09:30:39;167.63;;;74.20;;
13083;SDS011;6608;48.790;9.198;2023-10-19T09:33:06;172.17;;;74.60;;
13083;SDS011;6608;48.790;9.198;2023-10-19T09:35:34;175.80;;;76.47;;
13083;SDS011;6608;48.790;9.198;2023-10-19T09:38:02;169.67;;;73.73;;
13083;SDS011;6608;48.790;9.198;2023-10-19T09:40:34;172.80;;;74.90;;
13083;SDS011;6608;48.790;9.198;2023-10-19T09:43:01;171.03;;;74.10;;
13083;SDS011;6608;48.790;9.198;2023-10-19T09:45:31;176.83;;;74.77;;
13083;SDS011;6608;48.790;9.198;2023-10-19T09:48:03;178.87;;;76.23;;
13083;SDS011;6608;48.790;9.198;2023-10-19T09:50:32;174.47;;;74.97;;
13083;SDS011;6608;48.790;9.198;2023-10-19T09:52:58;169.73;;;73.07;;
13083;SDS011;6608;48.790;9.198;2023-10-19T09:55:26;166.40;;;72.33;;
13083;SDS011;6608;48.790;9.198;2023-10-19T09:57:58;171.90;;;73.53;;
13083;SDS011;6608;48.790;9.198;2023-10-19T10:00:26;168.70;;;72.40;;
13083;SDS011;6608;48.790;9.198;2023-10-19T10:02:56;163.60;;;70.27;;
13083;SDS011;6608;48.790;9.198;2023-10-19T10:10:54;173.97;;;76.80;;
13083;SDS011;6608;48.790;9.198;2023-10-19T10:13:37;174.37;;;73.70;;
13083;SDS011;6608;48.790;9.198;2023-10-19T10:16:03;169.03;;;71.77;;
13083;SDS011;6608;48.790;9.198;2023-10-19T10:18:31;171.27;;;72.40;;
13083;SDS011;6608;48.790;9.198;2023-10-19T10:21:04;171.83;;;72.67;;
13083;SDS011;6608;48.790;9.198;2023-10-19T10:23:37;164.43;;;69.43;;
13083;SDS011;6608;48.790;9.198;2023-10-19T10:26:07;164.23;;;70.10;;
13083;SDS011;6608;48.790;9.198;2023-10-19T10:28:34;161.37;;;68.70;;
13083;SDS011;6608;48.790;9.198;2023-10-19T10:31:12;166.67;;;71.77;;
13083;SDS011;6608;48.790;9.198;2023-10-19T10:33:43;160.67;;;68.07;;
13083;SDS011;6608;48.790;9.198;2023-10-19T10:36:11;163.03;;;68.67;;
13083;SDS011;6608;48.790;9.198;2023-10-19T10:38:37;156.90;;;67.43;;
13083;SDS011;6608;48.790;9.198;2023-10-19T10:41:04;170.13;;;70.47;;
13083;SDS011;6608;48.790;9.198;2023-10-19T10:43:31;158.40;;;67.27;;
13083;SDS011;6608;48.790;9.198;2023-10-19T10:46:02;164.10;;;69.20;;
13083;SDS011;6608;48.790;9.198;2023-10-19T10:48:30;161.33;;;67.77;;
13083;SDS011;6608;48.790;9.198;2023-10-19T10:50:57;155.93;;;66.57;;
13083;SDS011;6608;48.790;9.198;2023-10-19T10:53:23;157.27;;;66.50;;
13083;SDS011;6608;48.790;9.198;2023-10-19T10:55:51;158.80;;;67.37;;
13083;SDS011;6608;48.790;9.198;2023-10-19T10:58:18;163.53;;;68.67;;
13083;SDS011;6608;48.790;9.198;2023-10-19T11:00:44;159.30;;;67.70;;
13083;SDS011;6608;48.790;9.198;2023-10-19T11:03:12;160.27;;;67.87;;
13083;SDS011;6608;48.790;9.198;2023-10-19T11:05:40;164.50;;;69.13;;
13083;SDS011;6608;48.790;9.198;2023-10-19T11:08:10;161.63;;;68.50;;
13083;SDS011;6608;48.790;9.198;2023-10-19T11:10:38;159.10;;;67.83;;
13083;SDS011;6608;48.790;9.198;2023-10-19T11:13:08;156.83;;;67.23;;
13083;SDS011;6608;48.790;9.198;2023-10-19T11:15:34;157.37;;;66.87;;
13083;SDS011;6608;48.790;9.198;2023-10-19T11:18:02;160.90;;;67.30;;
13083;SDS011;6608;48.790;9.198;2023-10-19T11:20:28;156.20;;;67.27;;
13083;SDS011;6608;48.790;9.198;2023-10-19T11:22:57;154.87;;;67.03;;
13083;SDS011;6608;48.790;9.198;2023-10-19T11:25:26;160.87;;;69.53;;
13083;SDS011;6608;48.790;9.198;2023-10-19T11:27:53;159.27;;;68.37;;
13083;SDS011;6608;48.790;9.198;2023-10-19T11:30:23;163.63;;;69.43;;
13083;SDS011;6608;48.790;9.198;2023-10-19T11:32:50;164.40;;;69.93;;
13083;SDS011;6608;48.790;9.198;2023-10-19T11:35:18;164.23;;;70.47;;
13083;SDS011;6608;48.790;9.198;2023-10-19T11:37:48;171.57;;;72.60;;
13083;SDS011;6608;48.790;9.198;2023-10-19T11:40:16;166.13;;;70.77;;
13083;SDS011;6608;48.790;9.198;2023-10-19T11:42:43;176.73;;;72.80;;
13083;SDS011;6608;48.790;9.198;2023-10-19T11:45:10;162.33;;;69.97;;
13083;SDS011;6608;48.790;9.198;2023-10-19T11:47:37;170.23;;;71.90;;
13083;SDS011;6608;48.790;9.198;2023-10-19T11:50:04;178.07;;;79.63;;
13083;SDS011;6608;48.790;9.198;2023-10-19T11:52:30;168.47;;;71.00;;
13083;SDS011;6608;48.790;9.198;2023-10-19T11:54:57;166.63;;;72.43;;
13083;SDS011;6608;48.790;9.198;2023-10-19T11:57:25;160.67;;;70.03;;
13083;SDS011;6608;48.790;9.198;2023-10-19T11:59:51;168.87;;;70.73;;
13083;SDS011;6608;48.790;9.198;2023-10-19T12:02:18;166.20;;;70.97;;
13083;SDS011;6608;48.790;9.198;2023-10-19T12:04:45;167.33;;;72.10;;
13083;SDS011;6608;48.790;9.198;2023-10-19T12:07:12;198.17;;;95.57;;
13083;SDS011;6608;48.790;9.198;2023-10-19T12:09:38;168.33;;;72.90;;
13083;SDS011;6608;48.790;9.198;2023-10-19T12:12:06;168.53;;;72.07;;
13083;SDS011;6608;48.790;9.198;2023-10-19T12:14:36;168.17;;;72.33;;
13083;SDS011;6608;48.790;9.198;2023-10-19T12:17:02;165.30;;;70.87;;
13083;SDS011;6608;48.790;9.198;2023-10-19T12:19:31;166.00;;;70.97;;
13083;SDS011;6608;48.790;9.198;2023-10-19T12:21:59;163.37;;;70.60;;
13083;SDS011;6608;48.790;9.198;2023-10-19T12:24:26;162.50;;;68.90;;
13083;SDS011;6608;48.790;9.198;2023-10-19T12:26:54;165.90;;;69.87;;
13083;SDS011;6608;48.790;9.198;2023-10-19T12:29:21;167.33;;;70.93;;
13083;SDS011;6608;48.790;9.198;2023-10-19T12:31:49;168.10;;;71.43;;
13083;SDS011;6608;48.790;9.198;2023-10-19T12:34:16;157.73;;;67.93;;
13083;SDS011;6608;48.790;9.198;2023-10-19T12:36:42;155.53;;;66.90;;
13083;SDS011;6608;48.790;9.198;2023-10-19T12:39:11;162.33;;;69.33;;
13083;SDS011;6608;48.790;9.198;2023-10-19T12:41:59;155.17;;;67.57;;
13083;SDS011;6608;48.790;9.198;2023-10-19T12:44:26;160.33;;;67.37;;
13083;SDS011;6608;48.790;9.198;2023-10-19T12:46:55;152.80;;;66.60;;
13083;SDS011;6608;48.790;9.198;2023-10-19T12:49:22;162.20;;;69.07;;
13083;SDS011;6608;48.790;9.198;2023-10-19T12:52:21;159.23;;;68.27;;
13083;SDS011;6608;48.790;9.198;2023-10-19T12:54:39;154.90;;;66.60;;
13083;SDS011;6608;48.790;9.198;2023-10-19T12:57:08;157.67;;;68.00;;
13083;SDS011;6608;48.790;9.198;2023-10-19T12:59:35;157.10;;;67.80;;
13083;SDS011;6608;48.790;9.198;2023-10-19T13:02:05;157.67;;;67.53;;
13083;SDS011;6608;48.790;9.198;2023-10-19T13:04:33;159.07;;;69.23;;
13083;SDS011;6608;48.790;9.198;2023-10-19T13:07:00;163.30;;;69.73;;
13083;SDS011;6608;48.790;9.198;2023-10-19T13:09:27;159.43;;;68.97;;
13083;SDS011;6608;48.790;9.198;2023-10-19T13:11:57;159.27;;;69.30;;
13083;SDS011;6608;48.790;9.198;2023-10-19T13:14:24;168.87;;;75.93;;
13083;SDS011;6608;48.790;9.198;2023-10-19T13:16:51;151.83;;;65.77;;
13083;SDS011;6608;48.790;9.198;2023-10-19T13:19:20;153.10;;;66.23;;
13083;SDS011;6608;48.790;9.198;2023-10-19T13:21:49;159.47;;;67.00;;
13083;SDS011;6608;48.790;9.198;2023-10-19T13:24:16;159.80;;;69.23;;
13083;SDS011;6608;48.790;9.198;2023-10-19T13:26:44;153.87;;;65.83;;
13083;SDS011;6608;48.790;9.198;2023-10-19T13:29:12;157.50;;;67.23;;
13083;SDS011;6608;48.790;9.198;2023-10-19T13:31:38;160.20;;;67.00;;
13083;SDS011;6608;48.790;9.198;2023-10-19T13:34:05;153.60;;;65.80;;
13083;SDS011;6608;48.790;9.198;2023-10-19T13:36:36;152.40;;;64.70;;
13083;SDS011;6608;48.790;9.198;2023-10-19T13:39:04;155.50;;;65.77;;
13083;SDS011;6608;48.790;9.198;2023-10-19T13:41:31;152.50;;;66.10;;
13083;SDS011;6608;48.790;9.198;2023-10-19T13:43:57;154.87;;;67.30;;
13083;SDS011;6608;48.790;9.198;2023-10-19T13:46:24;161.47;;;69.67;;
13083;SDS011;6608;48.790;9.198;2023-10-19T13:48:50;154.70;;;67.93;;
13083;SDS011;6608;48.790;9.198;2023-10-19T13:51:17;158.00;;;68.20;;
13083;SDS011;6608;48.790;9.198;2023-10-19T13:53:45;157.33;;;68.27;;
13083;SDS011;6608;48.790;9.198;2023-10-19T13:56:12;160.33;;;69.57;;
13083;SDS011;6608;48.790;9.198;2023-10-19T13:58:39;169.67;;;76.07;;
13083;SDS011;6608;48.790;9.198;2023-10-19T14:01:06;154.77;;;67.23;;
13083;SDS011;6608;48.790;9.198;2023-10-19T14:03:33;153.40;;;66.97;;
13083;SDS011;6608;48.790;9.198;2023-10-19T14:06:00;159.87;;;71.33;;
13083;SDS011;6608;48.790;9.198;2023-10-19T14:08:26;162.43;;;69.00;;
13083;SDS011;6608;48.790;9.198;2023-10-19T14:11:00;162.97;;;70.00;;
13083;SDS011;6608;48.790;9.198;2023-10-19T14:13:26;165.37;;;70.13;;
13083;SDS011;6608;48.790;9.198;2023-10-19T14:15:52;160.03;;;69.90;;
13083;SDS011;6608;48.790;9.198;2023-10-19T14:18:19;165.13;;;70.57;;
13083;SDS011;6608;48.790;9.198;2023-10-19T14:20:46;164.53;;;73.00;;
13083;SDS011;6608;48.790;9.198;2023-10-19T14:23:13;158.67;;;70.40;;
13083;SDS011;6608;48.790;9.198;2023-10-19T14:25:39;159.57;;;69.07;;
13083;SDS011;6608;48.790;9.198;2023-10-19T14:28:09;154.57;;;68.83;;
13083;SDS011;6608;48.790;9.198;2023-10-19T14:30:36;157.53;;;68.60;;